Clay, Alabama
Current Conditions -  °F | °C
As of 11:53 PM on Thursday 27 Nov 2014 (Local Time) from KBHM Reporting Station
Clear Clear  
Wind Chill: 33°   Ceiling: Unl
Heat Index: 33°   Visibility: 10mi
Dew Point: 26°   Wind: 0mph
Humidity: 75%   Direction: NA
Pressure: 30.44"   Gusts: NA
Location:  33.7°N, 86.6°W
Report Text: KBHM 280553Z 00000KT 10SM CLR 01/M03 A3044 RMK AO2 SLP312 T00061033 10044 21006 400831006 58002
Loading
Personal Weather Stations






























Interactive Weather Map New forecast layout! Learn more

10-Day Weather Forecast

Advertisements
Track Severe Weather on mobile